createdAt,value
2019-06-01T00:04:07.153Z,70.20
2019-06-01T00:09:10.776Z,70.30
2019-06-01T00:14:14.437Z,70.50
2019-06-01T00:19:18.059Z,70.70
2019-06-01T00:24:21.792Z,70.80
2019-06-01T00:29:27.055Z,71.20
2019-06-01T00:34:30.662Z,71.40
2019-06-01T00:39:34.287Z,71.60
2019-06-01T00:44:38.005Z,71.60
2019-06-01T00:49:42.686Z,71.60
2019-06-01T00:54:47.333Z,71.90
2019-06-01T00:59:53.165Z,71.90
2019-06-01T01:05:02.171Z,72.10
2019-06-01T01:10:07.015Z,72.20
2019-06-01T01:15:10.749Z,72.50
2019-06-01T01:20:22.963Z,72.50
2019-06-01T01:25:26.711Z,72.80
2019-06-01T01:30:30.529Z,72.70
2019-06-01T01:35:39.840Z,73.70
2019-06-01T01:40:43.489Z,72.90
2019-06-01T01:45:48.481Z,73.00
2019-06-01T01:50:52.432Z,73.20
2019-06-01T01:55:57.224Z,73.50
2019-06-01T02:01:17.993Z,73.30
2019-06-01T02:06:06.367Z,73.60
2019-06-01T02:11:10.115Z,73.70
2019-06-01T02:16:13.823Z,73.90
2019-06-01T02:21:17.562Z,73.90
2019-06-01T02:26:21.272Z,74.10
2019-06-01T02:31:40.005Z,74.00
2019-06-01T02:36:30.291Z,74.10
2019-06-01T02:41:33.988Z,74.10
2019-06-01T02:46:37.622Z,74.30
2019-06-01T02:51:41.284Z,74.30
2019-06-01T02:56:45.013Z,74.40
2019-06-01T03:01:57.482Z,74.60
2019-06-01T03:07:03.820Z,74.50
2019-06-01T03:12:11.216Z,74.60
2019-06-01T03:17:17.312Z,74.70
2019-06-01T03:22:23.435Z,74.80
2019-06-01T03:27:30.378Z,74.80
2019-06-01T03:32:37.100Z,75.00
2019-06-01T03:37:39.266Z,75.00
2019-06-01T03:42:42.886Z,75.10
2019-06-01T03:47:48.090Z,75.00
2019-06-01T03:52:51.703Z,75.20
2019-06-01T03:58:00.853Z,75.40
2019-06-01T04:03:05.337Z,75.20
2019-06-01T04:08:09.657Z,75.40
2019-06-01T04:13:13.587Z,75.60
2019-06-01T04:18:17.638Z,75.60
2019-06-01T04:23:21.280Z,75.90
2019-06-01T04:28:24.875Z,76.30
2019-06-01T04:33:29.662Z,76.20
2019-06-01T04:38:33.286Z,77.30
2019-06-01T04:43:37.539Z,76.60
2019-06-01T04:48:41.094Z,76.90
2019-06-01T04:53:44.706Z,77.20
2019-06-01T04:58:50.105Z,77.10
2019-06-01T05:03:53.838Z,77.30
2019-06-01T05:08:57.525Z,77.30
2019-06-01T05:14:01.220Z,77.50
2019-06-01T05:19:05.968Z,77.60
2019-06-01T05:24:10.642Z,77.90
2019-06-01T05:29:15.666Z,78.50
2019-06-01T05:34:19.691Z,78.30
2019-06-01T05:39:23.366Z,79.60
2019-06-01T05:44:31.117Z,78.60
2019-06-01T05:49:34.726Z,79.00
2019-06-01T05:54:38.532Z,78.90
2019-06-01T05:59:43.236Z,79.50
2019-06-01T06:04:48.438Z,80.00
2019-06-01T06:09:52.116Z,79.70
2019-06-01T06:14:55.835Z,80.20
2019-06-01T06:19:59.450Z,79.90
2019-06-01T06:25:03.126Z,79.60
2019-06-01T06:30:07.637Z,79.80
2019-06-01T06:35:13.816Z,80.00
2019-06-01T06:40:18.492Z,80.20
2019-06-01T06:45:22.864Z,79.90
2019-06-01T06:50:26.586Z,79.90
2019-06-01T06:55:30.239Z,80.20
2019-06-01T07:00:33.856Z,80.10
2019-06-01T07:05:37.545Z,80.00
2019-06-01T07:10:41.281Z,80.10
2019-06-01T07:15:44.936Z,80.20
2019-06-01T07:20:48.550Z,79.80
2019-06-01T07:25:52.307Z,79.50
2019-06-01T07:30:55.979Z,79.50
2019-06-01T07:35:59.533Z,79.10
2019-06-01T07:41:03.218Z,78.60
2019-06-01T07:46:07.790Z,78.60
2019-06-01T07:51:11.436Z,78.50
2019-06-01T07:56:15.086Z,78.20
2019-06-01T08:01:18.726Z,78.00
2019-06-01T08:06:23.821Z,78.00
2019-06-01T08:11:31.101Z,77.70
2019-06-01T08:16:39.669Z,77.50
2019-06-01T08:21:38.523Z,77.50
2019-06-01T08:26:48.385Z,77.20
2019-06-01T08:31:55.578Z,77.10
2019-06-01T08:36:57.349Z,76.90
2019-06-01T08:42:00.996Z,76.80
2019-06-01T08:47:04.888Z,76.60
2019-06-01T08:52:08.557Z,76.40
2019-06-01T08:57:19.116Z,76.30
2019-06-01T09:02:22.676Z,76.20
2019-06-01T09:07:26.895Z,76.10
2019-06-01T09:12:31.384Z,75.90
2019-06-01T09:17:35.565Z,75.90
2019-06-01T09:22:39.156Z,75.50
2019-06-01T09:27:42.879Z,75.40
2019-06-01T09:32:46.539Z,75.30
2019-06-01T09:37:50.302Z,75.20
2019-06-01T09:42:55.491Z,75.20
2019-06-01T09:47:59.103Z,75.10
2019-06-01T09:53:03.051Z,74.70
2019-06-01T09:58:06.719Z,74.70
2019-06-01T10:03:10.326Z,74.10
2019-06-01T10:08:14.181Z,73.80
2019-06-01T10:13:17.813Z,73.50
2019-06-01T10:18:21.481Z,73.00
2019-06-01T10:23:25.118Z,72.90
2019-06-01T10:28:28.877Z,72.40
2019-06-01T10:33:32.706Z,72.10
2019-06-01T10:38:39.382Z,71.70
2019-06-01T10:43:43.203Z,71.60
2019-06-01T10:48:49.319Z,71.50
2019-06-01T10:53:52.999Z,70.80
2019-06-01T10:59:00.500Z,71.20
2019-06-01T11:04:03.032Z,70.40
2019-06-01T11:09:09.846Z,68.70
2019-06-01T11:14:13.500Z,69.30
2019-06-01T11:19:19.876Z,68.70
2019-06-01T11:24:25.136Z,68.90
2019-06-01T11:29:28.750Z,68.60
2019-06-01T11:34:32.354Z,67.50
2019-06-01T11:39:36.338Z,68.10
2019-06-01T11:44:47.029Z,66.50
2019-06-01T11:49:54.189Z,65.00
2019-06-01T11:54:57.828Z,65.20
2019-06-01T12:00:01.441Z,65.20
2019-06-01T12:05:07.618Z,64.30
2019-06-01T12:10:11.762Z,64.10
2019-06-01T12:15:15.583Z,62.30
2019-06-01T12:20:19.684Z,63.50
2019-06-01T12:25:23.290Z,63.70
2019-06-01T12:30:26.929Z,62.70
2019-06-01T12:35:30.529Z,62.10
2019-06-01T12:40:34.356Z,62.50
2019-06-01T12:45:43.834Z,62.00
2019-06-01T12:50:50.207Z,62.20
2019-06-01T12:55:53.038Z,62.00
2019-06-01T13:00:56.973Z,61.30
2019-06-01T13:06:00.611Z,61.40
2019-06-01T13:11:04.372Z,60.70
2019-06-01T13:16:10.003Z,59.50
2019-06-01T13:21:15.364Z,59.50
2019-06-01T13:26:19.090Z,60.10
2019-06-01T13:31:52.774Z,59.00
2019-06-01T13:36:56.602Z,59.50
2019-06-01T13:42:00.290Z,59.40
2019-06-01T13:47:06.562Z,58.50
2019-06-01T13:52:10.380Z,58.30
2019-06-01T13:57:16.610Z,57.90
2019-06-01T14:02:22.257Z,57.90
2019-06-01T14:07:27.551Z,57.30
2019-06-01T14:12:32.873Z,57.40
2019-06-01T14:17:36.435Z,57.50
2019-06-01T14:22:40.137Z,56.20
2019-06-01T14:27:43.832Z,56.60
2019-06-01T14:32:48.792Z,56.90
2019-06-01T14:37:53.392Z,57.10
2019-06-01T14:42:57.783Z,56.80
2019-06-01T14:48:01.582Z,56.60
2019-06-01T14:53:05.226Z,56.40
2019-06-01T14:58:08.925Z,55.90
2019-06-01T15:03:20.687Z,56.30
2019-06-01T15:08:24.321Z,55.90
2019-06-01T15:13:27.935Z,55.50
2019-06-01T15:18:31.565Z,55.40
2019-06-01T15:23:36.752Z,55.10
2019-06-01T15:28:40.341Z,55.10
2019-06-01T15:33:44.053Z,55.00
2019-06-01T15:38:47.676Z,55.20
2019-06-01T15:43:51.229Z,55.00
2019-06-01T15:48:57.796Z,55.20
2019-06-01T15:54:03.239Z,55.30
2019-06-01T15:59:06.964Z,54.40
2019-06-01T16:04:10.600Z,54.20
2019-06-01T16:09:14.240Z,53.70
2019-06-01T16:14:17.930Z,53.60
2019-06-01T16:19:21.563Z,53.40
2019-06-01T16:24:25.089Z,53.60
2019-06-01T16:29:28.789Z,53.00
2019-06-01T16:34:32.444Z,53.20
2019-06-01T16:39:36.056Z,53.90
2019-06-01T16:44:39.650Z,53.80
2019-06-01T16:49:43.251Z,54.10
2019-06-01T16:54:46.872Z,53.20
2019-06-01T16:59:50.539Z,52.90
2019-06-01T17:04:54.131Z,52.60
2019-06-01T17:09:58.686Z,52.70
2019-06-01T17:15:09.207Z,53.00
2019-06-01T17:20:33.724Z,52.30
2019-06-01T17:25:43.255Z,52.40
2019-06-01T17:30:48.028Z,52.40
2019-06-01T17:35:53.301Z,53.10
2019-06-01T17:40:56.946Z,53.20
2019-06-01T17:46:10.117Z,53.70
2019-06-01T17:51:13.911Z,54.00
2019-06-01T17:56:17.627Z,54.20
2019-06-01T18:01:21.266Z,54.50
2019-06-01T18:06:25.186Z,54.60
2019-06-01T18:11:28.793Z,54.80
2019-06-01T18:16:32.390Z,54.90
2019-06-01T18:21:35.941Z,55.10
2019-06-01T18:26:39.541Z,55.30
2019-06-01T18:31:46.282Z,55.30
2019-06-01T18:36:49.935Z,55.40
2019-06-01T18:41:53.623Z,55.50
2019-06-01T18:46:57.426Z,55.60
2019-06-01T18:52:01.197Z,55.60
2019-06-01T18:57:12.026Z,55.80
2019-06-01T19:02:10.472Z,55.90
2019-06-01T19:07:15.428Z,55.90
2019-06-01T19:12:20.297Z,56.00
2019-06-01T19:17:23.910Z,56.10
2019-06-01T19:22:27.525Z,56.10
2019-06-01T19:27:31.619Z,56.10
2019-06-01T19:32:35.253Z,56.30
2019-06-01T19:37:42.977Z,56.30
2019-06-01T19:42:50.052Z,56.50
2019-06-01T19:47:53.768Z,56.60
2019-06-01T19:52:59.084Z,56.70
2019-06-01T19:58:05.566Z,56.90
2019-06-01T20:03:14.347Z,57.10
2019-06-01T20:08:20.262Z,57.20
2019-06-01T20:13:26.665Z,57.40
2019-06-01T20:18:30.318Z,57.50
2019-06-01T20:23:37.460Z,57.00
2019-06-01T20:28:47.088Z,57.80
2019-06-01T20:33:56.005Z,58.10
2019-06-01T20:38:57.626Z,58.20
2019-06-01T20:44:04.008Z,58.40
2019-06-01T20:49:14.557Z,58.60
2019-06-01T20:54:19.035Z,58.70
2019-06-01T20:59:24.610Z,58.90
2019-06-01T21:04:28.502Z,59.10
2019-06-01T21:09:32.035Z,59.20
2019-06-01T21:14:36.967Z,59.50
2019-06-01T21:19:40.839Z,59.60
2019-06-01T21:24:44.600Z,59.90
2019-06-01T21:29:48.211Z,60.00
2019-06-01T21:34:51.919Z,60.20
2019-06-01T21:39:55.507Z,60.50
2019-06-01T21:44:59.241Z,60.90
2019-06-01T21:50:08.275Z,61.10
2019-06-01T21:55:12.542Z,61.30
2019-06-01T22:00:29.587Z,61.60
2019-06-01T22:05:33.310Z,61.80
2019-06-01T22:10:36.917Z,62.00
2019-06-01T22:15:42.314Z,62.20
2019-06-01T22:20:47.119Z,62.40
2019-06-01T22:25:50.734Z,62.60
2019-06-01T22:30:54.422Z,62.80
2019-06-01T22:35:58.057Z,63.10
2019-06-01T22:41:01.743Z,63.30
2019-06-01T22:46:13.880Z,63.60
2019-06-01T22:51:17.500Z,64.00
2019-06-01T22:56:21.184Z,64.30
2019-06-01T23:01:24.950Z,64.40
2019-06-01T23:06:29.224Z,64.80
2019-06-01T23:11:33.115Z,64.90
2019-06-01T23:16:38.275Z,65.00
2019-06-01T23:21:41.847Z,65.20
2019-06-01T23:26:59.606Z,65.50
2019-06-01T23:32:17.499Z,65.80
2019-06-01T23:37:22.550Z,65.90
2019-06-01T23:42:26.761Z,66.10
2019-06-01T23:47:39.215Z,66.40
2019-06-01T23:52:42.960Z,66.70
2019-06-01T23:57:46.634Z,66.90
